Time;durP1;ratioP1;P1;durP2;ratioP2;P2;SDS_P1;SDS_P2;PMS_P1;PMS_P2;Temp;Humidity;BMP_temperature;BMP_pressure;BME280_temperature;BME280_humidity;BME280_pressure;Samples;Min_cycle;Max_cycle;Signal;HPM_P1;HPM_P2
2024/03/30 00:02:26;;;;;;;;;;;;;;;20.66;30.92;98107.72;4964302;28;1168;-73
2024/03/30 00:04:52;;;;;;;;;;;;;;;20.50;31.19;98107.66;4980275;28;982;-73
2024/03/30 00:07:17;;;;;;;;;;;;;;;20.78;30.94;98117.59;4963986;28;1117;-72
2024/03/30 00:09:43;;;;;;;;;;;;;;;20.40;31.58;98119.94;4979885;28;957;-73
2024/03/30 00:12:11;;;;;;;;;;;;;;;20.53;31.35;98109.63;4999055;28;1016;-73
2024/03/30 00:14:37;;;;;;;;;;;;;;;20.65;30.80;98108.94;4999610;28;962;-72
2024/03/30 00:17:02;;;;;;;;;;;;;;;20.37;31.20;98118.00;5015556;28;1914;-73
2024/03/30 00:19:28;;;;;;;;;;;;;;;20.66;30.79;98115.41;5015719;28;939;-73
2024/03/30 00:21:53;;;;;;;;;;;;;;;20.60;31.33;98117.16;5015772;28;1026;-72
2024/03/30 00:24:19;;;;;;;;;;;;;;;20.96;31.17;98120.00;5015776;28;999;-73
2024/03/30 00:26:44;;;;;;;;;;;;;;;21.02;30.93;98118.25;5015935;28;971;-72
2024/03/30 00:29:10;;;;;;;;;;;;;;;20.71;31.18;98112.84;4983267;28;950;-73
2024/03/30 00:31:35;;;;;;;;;;;;;;;20.67;31.17;98117.78;5002236;28;954;-73
2024/03/30 00:34:00;;;;;;;;;;;;;;;20.94;30.60;98114.00;5037258;28;951;-72
2024/03/30 00:36:26;;;;;;;;;;;;;;;20.79;31.01;98119.16;5037022;28;1976;-73
2024/03/30 00:38:51;;;;;;;;;;;;;;;20.86;30.52;98118.22;5019617;28;958;-73
2024/03/30 00:41:17;;;;;;;;;;;;;;;20.77;30.69;98113.94;5035824;28;1036;-72
2024/03/30 00:43:44;;;;;;;;;;;;;;;20.63;30.87;98110.63;5019932;28;1018;-73
2024/03/30 00:46:09;;;;;;;;;;;;;;;20.52;31.22;98110.81;5037102;28;876;-73
2024/03/30 00:48:35;;;;;;;;;;;;;;;20.59;31.44;98110.69;5019574;28;984;-72
2024/03/30 00:51:01;;;;;;;;;;;;;;;20.65;31.32;98113.81;5019161;28;984;-72
2024/03/30 00:53:26;;;;;;;;;;;;;;;20.81;31.32;98117.47;5019270;28;958;-73
2024/03/30 00:55:59;;;;;;;;;;;;;;;20.70;31.25;98111.25;5037065;28;944;-73
2024/03/30 00:58:24;;;;;;;;;;;;;;;20.51;31.33;98110.03;5002827;28;1985;-72
2024/03/30 01:00:50;;;;;;;;;;;;;;;20.69;31.05;98115.34;5019434;28;1237;-73
2024/03/30 01:03:15;;;;;;;;;;;;;;;20.71;31.02;98115.69;5019334;28;910;-72
2024/03/30 01:05:41;;;;;;;;;;;;;;;20.70;30.84;98104.81;5035404;28;1287;-73
2024/03/30 01:08:06;;;;;;;;;;;;;;;20.51;31.33;98103.59;5035696;28;1070;-73
2024/03/30 01:10:32;;;;;;;;;;;;;;;20.52;31.53;98102.34;5019010;28;1319;-73
2024/03/30 01:12:57;;;;;;;;;;;;;;;20.44;31.77;98103.72;5014475;28;1026;-72
2024/03/30 01:15:23;;;;;;;;;;;;;;;20.86;31.33;98112.56;5014808;28;1171;-72
2024/03/30 01:17:49;;;;;;;;;;;;;;;20.94;30.87;98108.34;5014771;28;1914;-73
2024/03/30 01:20:14;;;;;;;;;;;;;;;20.84;30.97;98106.56;4966021;28;1379;-73
2024/03/30 01:22:40;;;;;;;;;;;;;;;21.02;30.37;98104.09;4998474;28;1037;-73
2024/03/30 01:25:06;;;;;;;;;;;;;;;20.59;31.14;98113.53;4982059;28;968;-73
2024/03/30 01:27:32;;;;;;;;;;;;;;;20.66;30.71;98116.19;4949815;28;1391;-72
2024/03/30 01:30:01;;;;;;;;;;;;;;;20.74;30.67;98117.66;4998212;28;1201;-73
2024/03/30 01:32:27;;;;;;;;;;;;;;;20.79;30.63;98110.69;4998059;28;1167;-73
2024/03/30 01:34:52;;;;;;;;;;;;;;;20.66;31.54;98110.53;4965866;28;1004;-73
2024/03/30 01:37:18;;;;;;;;;;;;;;;20.67;31.34;98103.66;4998097;28;1985;-72
2024/03/30 01:39:43;;;;;;;;;;;;;;;20.83;30.92;98100.09;5014506;28;1003;-73
2024/03/30 01:42:09;;;;;;;;;;;;;;;20.76;31.30;98106.69;4997811;28;1028;-73
2024/03/30 01:44:34;;;;;;;;;;;;;;;20.60;31.44;98106.63;5014099;28;1044;-72
2024/03/30 01:47:00;;;;;;;;;;;;;;;20.76;31.00;98115.16;5036435;28;992;-73
2024/03/30 01:49:25;;;;;;;;;;;;;;;20.73;30.79;98109.63;5018800;28;968;-72
2024/03/30 01:51:51;;;;;;;;;;;;;;;20.67;31.20;98106.47;5018528;28;940;-72
2024/03/30 01:54:17;;;;;;;;;;;;;;;20.73;31.01;98110.41;5014198;28;981;-72
2024/03/30 01:56:43;;;;;;;;;;;;;;;20.88;30.49;98110.06;4975089;28;1902;-72
2024/03/30 01:59:08;;;;;;;;;;;;;;;20.62;31.08;98101.31;4958708;28;1578;-72
2024/03/30 02:01:34;;;;;;;;;;;;;;;20.67;30.95;98106.47;4959453;28;989;-72
2024/03/30 02:04:00;;;;;;;;;;;;;;;20.61;31.42;98102.56;4946877;28;989;-73
2024/03/30 02:06:26;;;;;;;;;;;;;;;20.72;31.25;98103.13;4963140;28;1101;-73
2024/03/30 02:08:51;;;;;;;;;;;;;;;20.73;31.36;98104.75;4962833;28;903;-73
2024/03/30 02:11:18;;;;;;;;;;;;;;;20.56;31.75;98097.41;4946902;28;1171;-72
2024/03/30 02:13:44;;;;;;;;;;;;;;;20.57;31.57;98093.34;4962813;28;965;-73
2024/03/30 02:16:10;;;;;;;;;;;;;;;20.68;31.22;98096.78;4963076;28;985;-73
2024/03/30 02:18:35;;;;;;;;;;;;;;;20.92;30.50;98103.09;4979001;28;1985;-73
2024/03/30 02:21:01;;;;;;;;;;;;;;;20.84;30.59;98104.53;4946739;28;1136;-73
2024/03/30 02:23:26;;;;;;;;;;;;;;;20.55;31.41;98104.31;4946548;28;1055;-73
2024/03/30 02:25:52;;;;;;;;;;;;;;;20.47;31.26;98112.16;4962475;28;945;-73
2024/03/30 02:28:17;;;;;;;;;;;;;;;20.72;30.75;98114.44;5007252;28;933;-73
2024/03/30 02:30:43;;;;;;;;;;;;;;;20.48;31.09;98107.31;5039612;28;925;-72
2024/03/30 02:33:08;;;;;;;;;;;;;;;20.59;31.63;98105.03;5000887;28;909;-73
2024/03/30 02:35:34;;;;;;;;;;;;;;;20.72;31.71;98105.97;5001272;28;1092;-72
2024/03/30 02:37:59;;;;;;;;;;;;;;;20.69;31.42;98112.50;5017598;28;1898;-73
2024/03/30 02:40:27;;;;;;;;;;;;;;;20.70;31.59;98111.25;4985172;28;1111;-73
2024/03/30 02:42:52;;;;;;;;;;;;;;;20.56;31.53;98111.56;4985239;28;1216;-73
2024/03/30 02:45:18;;;;;;;;;;;;;;;20.61;31.60;98113.88;4984684;28;958;-73
2024/03/30 02:47:43;;;;;;;;;;;;;;;20.69;31.10;98118.16;5001267;28;1013;-73
2024/03/30 02:50:09;;;;;;;;;;;;;;;20.79;30.81;98119.16;5017576;28;1002;-73
2024/03/30 02:52:34;;;;;;;;;;;;;;;20.45;31.18;98110.94;5017207;28;973;-73
2024/03/30 02:55:00;;;;;;;;;;;;;;;20.53;31.20;98115.28;4984664;28;1041;-73
2024/03/30 02:57:25;;;;;;;;;;;;;;;20.73;30.91;98116.06;5000747;28;1914;-72
2024/03/30 02:59:51;;;;;;;;;;;;;;;20.75;31.14;98110.75;5000549;28;1194;-73
2024/03/30 03:02:17;;;;;;;;;;;;;;;20.58;31.74;98114.75;5017186;28;990;-73
2024/03/30 03:04:42;;;;;;;;;;;;;;;20.87;31.25;98120.59;5016341;28;1037;-73
2024/03/30 03:07:08;;;;;;;;;;;;;;;20.52;31.60;98108.81;5038900;28;1057;-72
2024/03/30 03:09:34;;;;;;;;;;;;;;;20.64;31.28;98121.50;5000454;28;983;-74
2024/03/30 03:11:59;;;;;;;;;;;;;;;20.92;30.80;98122.13;4984352;28;1041;-72
2024/03/30 03:14:25;;;;;;;;;;;;;;;20.61;31.35;98122.34;5000515;28;1036;-72
2024/03/30 03:16:51;;;;;;;;;;;;;;;20.60;31.22;98123.59;4984282;28;1911;-73
2024/03/30 03:19:16;;;;;;;;;;;;;;;20.67;31.11;98123.44;5017138;28;1031;-72
2024/03/30 03:21:42;;;;;;;;;;;;;;;20.73;30.94;98127.38;5000680;28;1019;-73
2024/03/30 03:24:08;;;;;;;;;;;;;;;20.66;31.50;98127.50;5016903;28;956;-73
2024/03/30 03:26:33;;;;;;;;;;;;;;;20.60;31.80;98117.94;4984006;28;965;-73
2024/03/30 03:28:59;;;;;;;;;;;;;;;20.62;31.89;98121.13;5000691;28;1128;-73
2024/03/30 03:31:24;;;;;;;;;;;;;;;20.64;31.98;98124.31;5016569;28;1134;-73
2024/03/30 03:33:50;;;;;;;;;;;;;;;21.00;31.27;98124.34;5000096;28;995;-73
2024/03/30 03:36:16;;;;;;;;;;;;;;;20.93;31.17;98120.88;4961320;28;1374;-73
2024/03/30 03:38:41;;;;;;;;;;;;;;;20.74;31.22;98123.31;4961432;28;1903;-73
2024/03/30 03:41:07;;;;;;;;;;;;;;;20.84;30.78;98127.16;4991753;28;1037;-73
2024/03/30 03:43:32;;;;;;;;;;;;;;;20.61;30.90;98119.53;4980426;28;978;-73
2024/03/30 03:45:58;;;;;;;;;;;;;;;20.66;30.91;98121.84;4980432;28;1429;-73
2024/03/30 03:48:24;;;;;;;;;;;;;;;20.47;31.30;98131.16;4996555;28;942;-73
2024/03/30 03:50:49;;;;;;;;;;;;;;;20.71;30.83;98123.38;4980610;28;1015;-73
2024/03/30 03:53:15;;;;;;;;;;;;;;;20.76;30.64;98125.69;4980552;28;1002;-73
2024/03/30 03:55:40;;;;;;;;;;;;;;;20.90;30.51;98135.91;4996381;28;1060;-73
2024/03/30 03:58:06;;;;;;;;;;;;;;;20.88;30.84;98144.00;4964133;28;1977;-73
2024/03/30 04:00:31;;;;;;;;;;;;;;;20.59;31.14;98133.31;4980245;28;1068;-72
2024/03/30 04:02:57;;;;;;;;;;;;;;;20.65;31.36;98125.91;4996713;28;967;-73
2024/03/30 04:05:24;;;;;;;;;;;;;;;20.67;31.54;98136.78;4996173;28;968;-73
2024/03/30 04:07:50;;;;;;;;;;;;;;;20.77;31.45;98128.06;4996467;28;974;-73
2024/03/30 04:10:17;;;;;;;;;;;;;;;20.81;31.34;98139.31;4980289;28;1020;-73
2024/03/30 04:12:43;;;;;;;;;;;;;;;20.90;31.16;98136.69;5000611;28;941;-73
2024/03/30 04:15:08;;;;;;;;;;;;;;;20.80;31.08;98135.69;5019944;28;1011;-73
2024/03/30 04:17:34;;;;;;;;;;;;;;;20.73;31.15;98140.72;5019950;28;1985;-73
2024/03/30 04:19:59;;;;;;;;;;;;;;;20.76;31.11;98143.44;5037868;28;740;-73
2024/03/30 04:22:25;;;;;;;;;;;;;;;20.64;30.96;98146.94;5020123;28;968;-73
2024/03/30 04:24:50;;;;;;;;;;;;;;;20.41;31.71;98150.59;5019398;28;1154;-72
2024/03/30 04:27:16;;;;;;;;;;;;;;;20.43;31.44;98153.78;5037583;28;876;-72
2024/03/30 04:29:41;;;;;;;;;;;;;;;20.68;31.20;98152.53;5020106;28;839;-73
2024/03/30 04:32:07;;;;;;;;;;;;;;;20.48;31.99;98150.50;5019568;28;1210;-73
2024/03/30 04:34:32;;;;;;;;;;;;;;;20.48;31.84;98156.16;4998615;28;1097;-73
2024/03/30 04:36:58;;;;;;;;;;;;;;;20.81;31.35;98162.72;5015181;28;1979;-73
2024/03/30 04:39:24;;;;;;;;;;;;;;;20.60;31.78;98173.69;4982689;28;1017;-73
2024/03/30 04:41:49;;;;;;;;;;;;;;;20.66;31.56;98172.75;5015253;28;984;-73
2024/03/30 04:44:15;;;;;;;;;;;;;;;20.55;31.43;98175.78;5015326;28;1032;-73
2024/03/30 04:46:40;;;;;;;;;;;;;;;20.73;31.06;98166.97;4998965;28;1294;-72
2024/03/30 04:49:06;;;;;;;;;;;;;;;20.65;30.99;98171.16;4998692;28;1245;-73
2024/03/30 04:51:31;;;;;;;;;;;;;;;20.78;30.65;98169.28;4982459;28;1609;-73
2024/03/30 04:53:57;;;;;;;;;;;;;;;20.72;30.88;98168.16;4998613;28;986;-73
2024/03/30 04:56:24;;;;;;;;;;;;;;;20.65;30.95;98168.31;4998529;28;1060;-73
2024/03/30 04:58:49;;;;;;;;;;;;;;;20.72;31.40;98171.00;4998911;28;1910;-72
2024/03/30 05:01:16;;;;;;;;;;;;;;;20.72;31.30;98176.66;5014972;28;965;-73
2024/03/30 05:03:41;;;;;;;;;;;;;;;20.54;31.80;98170.56;4975791;28;1058;-73
2024/03/30 05:06:07;;;;;;;;;;;;;;;20.70;31.42;98167.81;4959686;28;856;-73
2024/03/30 05:08:33;;;;;;;;;;;;;;;20.81;30.96;98168.38;4959547;28;1258;-73
2024/03/30 05:10:58;;;;;;;;;;;;;;;20.94;30.62;98170.56;4975580;28;784;-73
2024/03/30 05:13:24;;;;;;;;;;;;;;;20.69;30.83;98177.53;4943719;28;1606;-73
2024/03/30 05:15:49;;;;;;;;;;;;;;;20.53;31.06;98169.78;4959462;28;1207;-73
2024/03/30 05:18:15;;;;;;;;;;;;;;;20.87;30.82;98182.81;4959273;28;1910;-73
2024/03/30 05:20:50;;;;;;;;;;;;;;;20.92;30.53;98179.47;4975504;28;920;-73
2024/03/30 05:23:19;;;;;;;;;;;;;;;20.37;31.25;98180.16;4959048;28;747;-73
2024/03/30 05:25:45;;;;;;;;;;;;;;;20.63;31.24;98178.50;4975026;28;1072;-73
2024/03/30 05:28:10;;;;;;;;;;;;;;;20.72;31.18;98182.31;4959204;28;865;-73
2024/03/30 05:30:36;;;;;;;;;;;;;;;20.67;31.34;98185.63;4975067;28;884;-72
2024/03/30 05:33:02;;;;;;;;;;;;;;;20.70;31.37;98184.78;4975254;28;708;-73
2024/03/30 05:35:28;;;;;;;;;;;;;;;20.59;31.63;98192.69;4975131;28;928;-73
2024/03/30 05:37:54;;;;;;;;;;;;;;;20.91;31.13;98183.53;4974610;28;1984;-72
2024/03/30 05:40:19;;;;;;;;;;;;;;;20.76;31.27;98185.88;4981838;28;884;-72
2024/03/30 05:42:45;;;;;;;;;;;;;;;20.68;31.47;98180.81;5014235;28;1009;-73
2024/03/30 05:45:10;;;;;;;;;;;;;;;20.75;31.22;98181.44;4998005;28;1208;-73
2024/03/30 05:47:36;;;;;;;;;;;;;;;20.57;31.60;98186.66;5014242;28;783;-73
2024/03/30 05:50:01;;;;;;;;;;;;;;;20.68;31.19;98181.59;4997772;28;792;-73
2024/03/30 05:52:27;;;;;;;;;;;;;;;20.45;31.59;98181.59;4981782;28;1319;-72
2024/03/30 05:54:52;;;;;;;;;;;;;;;20.76;31.09;98187.91;4997759;28;684;-73
2024/03/30 05:57:18;;;;;;;;;;;;;;;20.81;31.02;98191.00;5012683;28;1906;-73
2024/03/30 05:59:43;;;;;;;;;;;;;;;20.65;31.33;98176.81;5018243;28;1196;-73
2024/03/30 06:02:09;;;;;;;;;;;;;;;20.67;31.39;98184.84;5036181;28;744;-72
2024/03/30 06:04:34;;;;;;;;;;;;;;;20.78;31.79;98186.25;5018753;28;818;-73
2024/03/30 06:07:00;;;;;;;;;;;;;;;20.72;31.92;98187.97;5018506;28;728;-73
2024/03/30 06:09:25;;;;;;;;;;;;;;;20.57;32.00;98186.66;5035938;28;771;-73
2024/03/30 06:11:51;;;;;;;;;;;;;;;21.03;31.22;98190.56;5035922;28;747;-73
2024/03/30 06:14:16;;;;;;;;;;;;;;;21.01;31.31;98182.53;5035970;28;1179;-72
2024/03/30 06:16:47;;;;;;;;;;;;;;;21.05;30.99;98193.78;5035843;28;2001;-73
2024/03/30 06:19:12;;;;;;;;;;;;;;;20.88;31.21;98183.59;4994514;28;988;-73
2024/03/30 06:21:38;;;;;;;;;;;;;;;21.01;31.01;98184.56;4978094;28;1188;-73
2024/03/30 06:24:04;;;;;;;;;;;;;;;21.02;30.78;98189.78;4994031;28;777;-73
2024/03/30 06:26:29;;;;;;;;;;;;;;;20.72;31.27;98187.97;4958802;28;1386;-73
2024/03/30 06:28:55;;;;;;;;;;;;;;;21.03;30.79;98184.91;4974823;28;877;-73
2024/03/30 06:31:20;;;;;;;;;;;;;;;20.92;30.77;98187.16;4974769;28;744;-72
2024/03/30 06:33:46;;;;;;;;;;;;;;;20.90;30.88;98193.28;4974816;28;957;-73
2024/03/30 06:36:11;;;;;;;;;;;;;;;20.55;31.61;98194.78;4974787;28;778;-72
2024/03/30 06:38:37;;;;;;;;;;;;;;;20.58;31.75;98193.91;4974697;28;1910;-73
2024/03/30 06:43:47;;;;;;;;;;;;;;;20.72;31.31;98199.28;4960882;28;1093;-73
2024/03/30 06:46:12;;;;;;;;;;;;;;;20.74;31.22;98196.81;4974839;28;1133;-73
2024/03/30 06:48:38;;;;;;;;;;;;;;;20.51;31.86;98200.50;4960877;28;779;-73
2024/03/30 06:51:03;;;;;;;;;;;;;;;20.70;31.50;98190.44;4994577;28;929;-73
2024/03/30 06:53:29;;;;;;;;;;;;;;;20.59;32.27;98208.84;4981580;28;1081;-73
2024/03/30 06:55:55;;;;;;;;;;;;;;;20.70;32.15;98207.41;4981629;28;756;-73
2024/03/30 06:58:20;;;;;;;;;;;;;;;20.91;32.06;98199.72;5015511;28;2365;-73
2024/03/30 07:00:49;;;;;;;;;;;;;;;20.71;32.17;98203.34;5021321;28;846;-73
2024/03/30 07:03:15;;;;;;;;;;;;;;;20.65;32.01;98198.63;5021612;28;1492;-73
2024/03/30 07:05:41;;;;;;;;;;;;;;;20.76;31.59;98205.66;5003873;28;1240;-73
2024/03/30 07:08:07;;;;;;;;;;;;;;;20.66;31.78;98203.84;5021643;28;866;-73
2024/03/30 07:10:32;;;;;;;;;;;;;;;20.92;31.38;98202.09;5020987;28;1248;-73
2024/03/30 07:12:57;;;;;;;;;;;;;;;20.88;31.07;98209.06;5020257;28;953;-72
2024/03/30 07:15:23;;;;;;;;;;;;;;;20.89;31.19;98202.19;5038973;28;848;-72
2024/03/30 07:17:48;;;;;;;;;;;;;;;20.91;31.29;98205.38;5003537;28;1914;-73
2024/03/30 07:20:14;;;;;;;;;;;;;;;20.57;31.55;98205.63;5021337;28;747;-73
2024/03/30 07:22:40;;;;;;;;;;;;;;;20.72;31.51;98207.75;5004805;28;984;-72
2024/03/30 07:25:05;;;;;;;;;;;;;;;20.79;31.20;98210.47;5038962;28;806;-73
2024/03/30 07:27:31;;;;;;;;;;;;;;;21.00;31.06;98205.59;5020799;28;1226;-73
2024/03/30 07:29:56;;;;;;;;;;;;;;;20.72;31.37;98204.13;5039060;28;794;-73
2024/03/30 07:32:22;;;;;;;;;;;;;;;20.74;31.99;98202.47;5038525;28;823;-72
2024/03/30 07:34:49;;;;;;;;;;;;;;;20.69;32.06;98205.81;5020817;28;1143;-73
2024/03/30 07:37:15;;;;;;;;;;;;;;;20.63;32.51;98207.56;5004524;28;1985;-72
2024/03/30 07:39:40;;;;;;;;;;;;;;;20.41;32.76;98206.31;5038382;28;708;-73
2024/03/30 07:42:07;;;;;;;;;;;;;;;20.65;32.12;98199.41;5021008;28;727;-73
2024/03/30 07:44:33;;;;;;;;;;;;;;;20.87;31.79;98210.31;5021190;28;783;-73
2024/03/30 07:46:58;;;;;;;;;;;;;;;20.79;31.86;98204.81;5020892;28;770;-73
2024/03/30 07:49:24;;;;;;;;;;;;;;;20.92;31.64;98201.31;5020505;28;819;-73
2024/03/30 07:51:49;;;;;;;;;;;;;;;21.00;31.41;98199.94;5038159;28;885;-73
2024/03/30 07:54:15;;;;;;;;;;;;;;;20.71;31.69;98196.88;5020693;28;700;-73
2024/03/30 07:56:40;;;;;;;;;;;;;;;20.83;31.26;98199.09;5020093;28;1914;-73
2024/03/30 07:59:06;;;;;;;;;;;;;;;21.11;31.02;98192.03;5037013;28;1047;-73
2024/03/30 08:01:33;;;;;;;;;;;;;;;20.79;31.44;98195.53;5037831;28;973;-73
2024/03/30 08:03:59;;;;;;;;;;;;;;;20.91;31.08;98183.53;5038153;28;787;-74
2024/03/30 08:06:24;;;;;;;;;;;;;;;20.96;31.02;98190.72;5019658;28;962;-73
2024/03/30 08:08:50;;;;;;;;;;;;;;;20.88;31.10;98190.09;5020152;28;814;-73
2024/03/30 08:11:15;;;;;;;;;;;;;;;20.73;31.70;98189.59;4999210;28;922;-72
2024/03/30 08:13:42;;;;;;;;;;;;;;;20.68;32.22;98192.91;4999264;28;887;-72
2024/03/30 08:16:07;;;;;;;;;;;;;;;20.75;32.26;98189.94;5015932;28;862;-72
2024/03/30 08:18:34;;;;;;;;;;;;;;;20.75;32.33;98178.63;4999369;28;1922;-73
2024/03/30 08:21:03;;;;;;;;;;;;;;;20.89;31.94;98180.38;4999241;28;775;-72
2024/03/30 08:23:28;;;;;;;;;;;;;;;20.87;32.28;98179.19;4999545;28;830;-73
2024/03/30 08:25:54;;;;;;;;;;;;;;;21.00;31.47;98169.63;4999526;28;829;-73
2024/03/30 08:28:20;;;;;;;;;;;;;;;20.96;31.62;98173.75;4982945;28;992;-72
2024/03/30 08:30:46;;;;;;;;;;;;;;;21.09;31.41;98171.88;4999450;28;881;-72
2024/03/30 08:33:12;;;;;;;;;;;;;;;20.92;31.36;98173.81;5015369;28;1028;-73
2024/03/30 08:35:37;;;;;;;;;;;;;;;20.86;31.51;98171.94;4976101;28;901;-73
2024/03/30 08:38:03;;;;;;;;;;;;;;;20.90;31.49;98175.50;4959841;28;1982;-73
2024/03/30 08:40:29;;;;;;;;;;;;;;;20.94;31.24;98176.22;4959767;28;923;-73
2024/03/30 08:42:54;;;;;;;;;;;;;;;20.67;31.67;98171.50;4960395;28;804;-73
2024/03/30 08:45:20;;;;;;;;;;;;;;;20.78;31.55;98169.28;4976253;28;916;-72
2024/03/30 08:47:46;;;;;;;;;;;;;;;20.61;31.70;98167.59;4959658;28;791;-72
2024/03/30 08:50:11;;;;;;;;;;;;;;;20.48;32.08;98170.28;4943920;28;1003;-73
2024/03/30 08:52:37;;;;;;;;;;;;;;;20.66;32.43;98175.56;4976444;28;759;-73
2024/03/30 08:55:02;;;;;;;;;;;;;;;20.86;32.55;98169.13;4976219;28;955;-73
2024/03/30 08:57:28;;;;;;;;;;;;;;;20.72;32.79;98165.34;4975957;28;2056;-73
2024/03/30 08:59:53;;;;;;;;;;;;;;;20.78;32.54;98163.63;4959665;28;1463;-73
2024/03/30 09:02:19;;;;;;;;;;;;;;;20.63;32.75;98167.97;4959618;28;890;-72
2024/03/30 09:04:45;;;;;;;;;;;;;;;21.01;31.93;98164.75;4959541;28;1036;-72
2024/03/30 09:07:11;;;;;;;;;;;;;;;20.97;31.82;98164.03;5019563;28;887;-73
2024/03/30 09:09:37;;;;;;;;;;;;;;;20.87;31.89;98173.53;5019128;28;751;-73
2024/03/30 09:12:03;;;;;;;;;;;;;;;20.53;32.59;98174.63;5019151;28;1279;-72
2024/03/30 09:14:28;;;;;;;;;;;;;;;20.54;32.49;98176.22;5019644;28;752;-72
2024/03/30 09:16:54;;;;;;;;;;;;;;;20.96;31.68;98168.09;5036427;28;1911;-72
2024/03/30 09:19:19;;;;;;;;;;;;;;;20.72;31.80;98171.00;5018967;28;1064;-73
2024/03/30 09:21:44;;;;;;;;;;;;;;;20.84;31.67;98166.75;5014679;28;898;-72
2024/03/30 09:24:10;;;;;;;;;;;;;;;20.85;31.47;98159.84;5014766;28;838;-73
2024/03/30 09:26:36;;;;;;;;;;;;;;;21.00;31.41;98163.97;4975158;28;1327;-73
2024/03/30 09:29:01;;;;;;;;;;;;;;;20.30;32.58;98156.44;4958900;28;870;-72
2024/03/30 09:31:27;;;;;;;;;;;;;;;20.58;32.11;98162.81;4943452;28;1326;-73
2024/03/30 09:33:52;;;;;;;;;;;;;;;20.55;31.87;98163.69;4975334;28;872;-73
2024/03/30 09:36:18;;;;;;;;;;;;;;;20.68;31.84;98158.97;4942618;28;1335;-73
2024/03/30 09:38:44;;;;;;;;;;;;;;;20.75;31.48;98164.47;4975193;28;1970;-73
2024/03/30 09:41:10;;;;;;;;;;;;;;;20.80;31.29;98172.47;4959149;28;911;-73
2024/03/30 09:43:35;;;;;;;;;;;;;;;20.90;30.99;98169.84;4959324;28;838;-72
2024/03/30 09:46:01;;;;;;;;;;;;;;;20.58;32.30;98168.47;4975234;28;797;-73
2024/03/30 09:48:27;;;;;;;;;;;;;;;20.65;32.66;98168.31;4975351;28;942;-73
2024/03/30 09:50:53;;;;;;;;;;;;;;;20.64;32.66;98178.03;4959175;28;916;-73
2024/03/30 09:53:18;;;;;;;;;;;;;;;20.89;32.65;98179.56;4959252;28;970;-72
2024/03/30 09:55:44;;;;;;;;;;;;;;;20.94;32.28;98173.41;4939550;29;979;-73
2024/03/30 09:58:10;;;;;;;;;;;;;;;20.93;32.11;98174.63;4966801;28;1954;-72
2024/03/30 10:00:35;;;;;;;;;;;;;;;20.81;32.12;98174.03;4997570;28;1144;-73
2024/03/30 10:03:01;;;;;;;;;;;;;;;20.68;32.35;98173.13;4997965;28;823;-73
2024/03/30 10:05:26;;;;;;;;;;;;;;;21.01;31.53;98176.06;4997674;28;910;-72
2024/03/30 10:08:01;;;;;;;;;;;;;;;20.72;31.94;98179.47;4997653;28;779;-74
2024/03/30 10:10:27;;;;;;;;;;;;;;;20.88;31.34;98177.94;4998123;28;930;-72
2024/03/30 10:12:54;;;;;;;;;;;;;;;20.97;31.37;98178.97;4981606;28;899;-72
2024/03/30 10:15:32;;;;;;;;;;;;;;;20.72;31.84;98171.00;4997681;28;831;-73
2024/03/30 10:17:57;;;;;;;;;;;;;;;20.49;32.13;98173.91;4997882;28;1906;-72
2024/03/30 10:20:23;;;;;;;;;;;;;;;20.88;31.66;98177.94;5014485;28;925;-73
2024/03/30 10:22:48;;;;;;;;;;;;;;;20.79;31.65;98170.88;4998494;28;712;-73
2024/03/30 10:25:14;;;;;;;;;;;;;;;20.68;31.80;98164.63;4985194;28;1095;-72
2024/03/30 10:27:40;;;;;;;;;;;;;;;20.84;31.47;98171.59;5019551;28;1199;-73
2024/03/30 10:30:06;;;;;;;;;;;;;;;20.65;31.87;98157.00;5022528;28;767;-72
2024/03/30 10:32:32;;;;;;;;;;;;;;;20.92;31.26;98158.88;5022034;28;771;-73
2024/03/30 10:34:57;;;;;;;;;;;;;;;20.93;31.30;98160.47;5039871;28;758;-73
2024/03/30 10:37:27;;;;;;;;;;;;;;;20.69;31.32;98140.00;5022024;28;1963;-73
2024/03/30 10:39:52;;;;;;;;;;;;;;;20.93;31.00;98146.34;5022062;28;685;-73
2024/03/30 10:42:18;;;;;;;;;;;;;;;20.75;32.27;98146.72;5039570;28;731;-73
2024/03/30 10:44:43;;;;;;;;;;;;;;;20.70;32.91;98150.84;5021640;28;756;-73
2024/03/30 10:47:09;;;;;;;;;;;;;;;20.89;33.02;98151.28;5021811;28;1449;-73
2024/03/30 10:49:34;;;;;;;;;;;;;;;21.03;32.74;98145.31;5021624;28;928;-73
2024/03/30 10:52:00;;;;;;;;;;;;;;;21.06;32.87;98138.78;5005372;28;1068;-72
2024/03/30 10:54:25;;;;;;;;;;;;;;;20.75;33.07;98136.19;5021358;28;1294;-72
2024/03/30 10:56:51;;;;;;;;;;;;;;;20.72;33.11;98134.22;5021708;28;1973;-73
2024/03/30 10:59:17;;;;;;;;;;;;;;;20.71;32.76;98129.81;5021544;28;1290;-73
2024/03/30 11:01:50;;;;;;;;;;;;;;;20.95;32.38;98129.72;5021537;28;815;-73
2024/03/30 11:04:16;;;;;;;;;;;;;;;20.75;32.70;98119.25;5039103;28;683;-73
2024/03/30 11:06:43;;;;;;;;;;;;;;;20.95;32.03;98132.56;5021421;28;1696;-72
2024/03/30 11:09:09;;;;;;;;;;;;;;;20.43;33.08;98113.44;5021507;28;1024;-73
2024/03/30 11:11:35;;;;;;;;;;;;;;;20.76;32.36;98122.84;5021184;28;853;-73
2024/03/30 11:14:00;;;;;;;;;;;;;;;20.70;32.24;98102.78;5021129;28;748;-73
2024/03/30 11:16:26;;;;;;;;;;;;;;;20.69;32.08;98115.34;5038866;28;968;-73
2024/03/30 11:18:59;;;;;;;;;;;;;;;20.62;32.11;98104.16;5021008;28;1922;-73
2024/03/30 11:21:26;;;;;;;;;;;;;;;20.85;31.70;98099.66;5021104;28;1358;-73
2024/03/30 11:23:57;;;;;;;;;;;;;;;20.89;31.80;98108.88;5021042;28;901;-73
2024/03/30 11:26:24;;;;;;;;;;;;;;;20.44;32.07;98098.06;5021587;28;739;-72
2024/03/30 11:28:58;;;;;;;;;;;;;;;20.56;32.24;98097.41;5021200;28;1302;-73
2024/03/30 11:31:31;;;;;;;;;;;;;;;20.51;31.86;98083.81;5038738;28;735;-73
2024/03/30 11:33:58;;;;;;;;;;;;;;;20.72;31.87;98086.16;5016397;28;1082;-73
2024/03/30 11:36:45;;;;;;;;;;;;;;;20.66;31.87;98087.91;5000040;28;1179;-73
2024/03/30 11:39:15;;;;;;;;;;;;;;;20.55;31.61;98081.69;4980346;28;1630;-72
2024/03/30 11:41:43;;;;;;;;;;;;;;;20.60;32.99;98078.38;4980608;28;1244;-73
2024/03/30 11:44:16;;;;;;;;;;;;;;;20.80;33.09;98078.34;4980783;28;990;-72
2024/03/30 11:46:41;;;;;;;;;;;;;;;20.75;33.58;98079.66;4980480;28;728;-72
2024/03/30 11:49:07;;;;;;;;;;;;;;;21.09;33.00;98075.66;4980643;28;1255;-72
2024/03/30 11:51:38;;;;;;;;;;;;;;;20.96;33.57;98086.06;4964120;28;1347;-73
2024/03/30 11:54:17;;;;;;;;;;;;;;;21.06;32.82;98076.53;4980599;28;944;-73
2024/03/30 11:56:43;;;;;;;;;;;;;;;21.04;32.89;98079.81;4980630;28;903;-72
2024/03/30 11:59:11;;;;;;;;;;;;;;;21.05;32.58;98087.06;4980194;28;1910;-73
2024/03/30 12:01:36;;;;;;;;;;;;;;;21.13;32.17;98084.84;4980263;28;801;-73
2024/03/30 12:04:02;;;;;;;;;;;;;;;20.84;32.29;98078.28;4980469;28;905;-73
2024/03/30 12:06:27;;;;;;;;;;;;;;;21.05;32.09;98077.78;4996430;28;795;-73
2024/03/30 12:08:53;;;;;;;;;;;;;;;20.90;32.32;98068.03;4996096;28;934;-73
2024/03/30 12:11:18;;;;;;;;;;;;;;;20.75;32.47;98053.41;4980363;28;787;-73
2024/03/30 12:13:44;;;;;;;;;;;;;;;20.69;32.66;98053.13;4979916;28;1190;-72
2024/03/30 12:16:09;;;;;;;;;;;;;;;20.89;32.28;98060.78;4998958;28;1009;-72
2024/03/30 12:18:35;;;;;;;;;;;;;;;20.69;32.36;98050.31;5037496;28;2024;-73
2024/03/30 12:21:00;;;;;;;;;;;;;;;20.79;32.20;98057.75;5020241;28;724;-73
2024/03/30 12:23:26;;;;;;;;;;;;;;;20.60;32.53;98050.09;5037797;28;839;-73
2024/03/30 12:25:52;;;;;;;;;;;;;;;20.86;31.75;98056.00;5020128;28;727;-73
2024/03/30 12:28:18;;;;;;;;;;;;;;;20.79;31.89;98057.75;5020000;28;843;-72
2024/03/30 12:30:43;;;;;;;;;;;;;;;20.71;31.93;98061.97;5019720;28;794;-72
2024/03/30 12:33:09;;;;;;;;;;;;;;;20.86;31.78;98051.13;5037572;28;748;-73
2024/03/30 12:35:34;;;;;;;;;;;;;;;20.72;31.67;98055.06;5003279;28;754;-73
2024/03/30 12:38:00;;;;;;;;;;;;;;;20.65;31.58;98058.06;5037173;28;1906;-73
2024/03/30 12:40:30;;;;;;;;;;;;;;;20.46;31.90;98056.00;5003447;28;1071;-73
2024/03/30 12:42:56;;;;;;;;;;;;;;;20.84;32.43;98058.47;4998683;28;1042;-73
2024/03/30 12:45:22;;;;;;;;;;;;;;;20.62;33.80;98047.63;5014719;28;941;-73
2024/03/30 12:47:48;;;;;;;;;;;;;;;20.72;33.93;98052.25;4998808;28;820;-72
2024/03/30 12:50:13;;;;;;;;;;;;;;;20.86;34.08;98053.16;4998631;28;732;-73
2024/03/30 12:52:39;;;;;;;;;;;;;;;20.88;34.13;98050.69;5014880;28;992;-72
2024/03/30 12:55:04;;;;;;;;;;;;;;;20.88;33.88;98047.84;5015377;28;778;-72
2024/03/30 12:57:31;;;;;;;;;;;;;;;20.94;33.50;98046.13;4998579;28;1906;-73
2024/03/30 12:59:56;;;;;;;;;;;;;;;20.95;33.05;98042.06;4975333;28;1050;-73